createdAt,value
2023-01-13T00:01:27.793Z,1.15
2023-01-13T00:03:56.398Z,1.95
2023-01-13T00:06:25.009Z,2.00
2023-01-13T00:08:52.949Z,1.98
2023-01-13T00:11:20.567Z,2.15
2023-01-13T00:13:47.641Z,1.98
2023-01-13T00:16:17.203Z,3.00
2023-01-13T00:18:45.027Z,3.38
2023-01-13T00:21:16.444Z,3.95
2023-01-13T00:23:44.124Z,3.28
2023-01-13T00:26:16.016Z,2.08
2023-01-13T00:28:43.424Z,1.20
2023-01-13T00:31:13.004Z,2.10
2023-01-13T00:33:40.901Z,2.10
2023-01-13T00:36:10.570Z,1.65
2023-01-13T00:38:37.629Z,1.95
2023-01-13T00:41:08.197Z,2.88
2023-01-13T00:43:37.181Z,1.38
2023-01-13T00:46:06.448Z,1.85
2023-01-13T00:48:34.278Z,2.03
2023-01-13T00:51:04.285Z,3.30
2023-01-13T00:53:37.606Z,3.25
2023-01-13T00:56:12.569Z,3.08
2023-01-13T00:58:40.069Z,0.70
2023-01-13T01:01:10.105Z,2.72
2023-01-13T01:03:37.887Z,5.22
2023-01-13T01:06:08.449Z,1.23
2023-01-13T01:08:35.877Z,5.03
2023-01-13T01:11:05.926Z,3.08
2023-01-13T01:13:33.086Z,2.08
2023-01-13T01:16:03.045Z,2.20
2023-01-13T01:18:30.054Z,1.13
2023-01-13T01:20:59.925Z,0.82
2023-01-13T01:23:30.639Z,1.80
2023-01-13T01:26:05.372Z,2.28
2023-01-13T01:28:32.632Z,3.40
2023-01-13T01:30:59.794Z,1.02
2023-01-13T01:33:27.578Z,3.20
2023-01-13T01:35:54.841Z,1.02
2023-01-13T01:38:21.856Z,1.55
2023-01-13T01:40:49.412Z,1.00
2023-01-13T01:43:19.704Z,2.42
2023-01-13T01:45:46.696Z,1.85
2023-01-13T01:48:13.991Z,1.67
2023-01-13T01:50:41.020Z,1.10
2023-01-13T01:53:17.041Z,2.25
2023-01-13T01:55:44.704Z,2.15
2023-01-13T01:58:18.079Z,1.10
2023-01-13T02:00:45.114Z,2.55
2023-01-13T02:03:12.526Z,2.33
2023-01-13T02:05:39.585Z,0.60
2023-01-13T02:08:08.004Z,1.08
2023-01-13T02:10:36.140Z,2.08
2023-01-13T02:13:07.515Z,0.75
2023-01-13T02:15:59.756Z,2.97
2023-01-13T02:18:44.689Z,2.90
2023-01-13T02:21:36.630Z,1.00
2023-01-13T02:24:30.896Z,1.90
2023-01-13T02:27:00.700Z,3.88
2023-01-13T02:29:49.160Z,4.25
2023-01-13T02:32:39.110Z,1.75
2023-01-13T02:35:18.290Z,1.67
2023-01-13T02:37:46.545Z,1.52
2023-01-13T02:40:32.071Z,2.35
2023-01-13T02:43:04.836Z,1.20
2023-01-13T02:45:44.010Z,2.28
2023-01-13T02:48:12.662Z,1.05
2023-01-13T02:50:46.289Z,3.40
2023-01-13T02:53:22.910Z,1.10
2023-01-13T02:55:53.251Z,2.20
2023-01-13T02:58:24.999Z,1.90
2023-01-13T03:03:19.359Z,4.03
2023-01-13T03:05:48.606Z,1.95
2023-01-13T03:08:33.416Z,2.50
2023-01-13T03:11:08.463Z,1.90
2023-01-13T03:14:13.033Z,1.52
2023-01-13T03:16:56.558Z,0.90
2023-01-13T03:19:52.741Z,2.05
2023-01-13T03:22:40.794Z,3.75
2023-01-13T03:25:20.360Z,0.68
2023-01-13T03:27:57.972Z,2.28
2023-01-13T03:30:44.284Z,1.42
2023-01-13T03:33:31.597Z,1.98
2023-01-13T03:36:04.172Z,2.25
2023-01-13T03:38:35.569Z,1.02
2023-01-13T03:41:10.426Z,0.85
2023-01-13T03:43:45.232Z,1.75
2023-01-13T03:46:24.089Z,1.77
2023-01-13T03:48:54.411Z,1.73
2023-01-13T03:51:24.990Z,1.33
2023-01-13T03:54:00.050Z,3.42
2023-01-13T03:56:41.774Z,0.85
2023-01-13T03:59:16.797Z,3.10
2023-01-13T04:01:59.726Z,1.60
2023-01-13T04:04:33.036Z,4.75
2023-01-13T04:07:16.884Z,1.55
2023-01-13T04:09:54.908Z,1.02
2023-01-13T04:12:29.672Z,1.02
2023-01-13T04:14:57.003Z,1.67
2023-01-13T04:17:24.034Z,0.60
2023-01-13T04:19:51.243Z,2.28
2023-01-13T04:22:18.323Z,0.45
2023-01-13T04:24:45.367Z,1.70
2023-01-13T04:27:12.407Z,1.80
2023-01-13T04:29:39.406Z,3.45
2023-01-13T04:32:06.536Z,1.73
2023-01-13T04:34:33.617Z,1.02
2023-01-13T04:37:00.673Z,2.20
2023-01-13T04:39:27.715Z,0.93
2023-01-13T04:41:54.730Z,2.15
2023-01-13T04:44:21.774Z,2.05
2023-01-13T04:46:48.820Z,1.02
2023-01-13T04:49:15.925Z,2.60
2023-01-13T04:51:42.967Z,5.20
2023-01-13T04:54:11.312Z,2.85
2023-01-13T04:56:38.362Z,1.02
2023-01-13T04:59:05.578Z,5.35
2023-01-13T05:01:32.766Z,1.73
2023-01-13T05:03:59.909Z,2.00
2023-01-13T05:06:27.473Z,2.60
2023-01-13T05:08:54.498Z,3.92
2023-01-13T05:11:21.782Z,0.98
2023-01-13T05:13:48.862Z,2.33
2023-01-13T05:16:15.916Z,6.25
2023-01-13T05:18:46.316Z,1.73
2023-01-13T05:21:13.631Z,1.98
2023-01-13T05:23:40.734Z,1.67
2023-01-13T05:26:07.990Z,0.40
2023-01-13T05:28:35.166Z,2.08
2023-01-13T05:31:02.315Z,2.08
2023-01-13T05:33:29.443Z,0.98
2023-01-13T05:35:56.527Z,1.65
2023-01-13T05:38:23.530Z,1.67
2023-01-13T05:40:50.652Z,1.23
2023-01-13T05:43:20.166Z,0.73
2023-01-13T05:45:56.367Z,2.05
2023-01-13T05:48:29.540Z,2.78
2023-01-13T05:50:56.695Z,1.98
2023-01-13T05:53:24.376Z,2.58
2023-01-13T05:55:52.478Z,2.72
2023-01-13T05:58:21.406Z,1.27
2023-01-13T06:00:48.437Z,4.03
2023-01-13T06:03:16.173Z,1.67
2023-01-13T06:05:43.420Z,0.65
2023-01-13T06:08:10.390Z,2.20
2023-01-13T06:10:37.513Z,0.40
2023-01-13T06:13:05.231Z,0.32
2023-01-13T06:15:32.624Z,0.45
2023-01-13T06:18:02.919Z,1.70
2023-01-13T06:20:30.021Z,1.70
2023-01-13T06:22:57.973Z,1.65
2023-01-13T06:25:43.821Z,3.50
2023-01-13T06:28:10.869Z,2.15
2023-01-13T06:30:43.210Z,1.85
2023-01-13T06:33:19.909Z,1.52
2023-01-13T06:35:54.801Z,1.30
2023-01-13T06:38:26.907Z,0.50
2023-01-13T06:40:54.655Z,1.20
2023-01-13T06:43:22.074Z,1.25
2023-01-13T06:45:52.183Z,1.35
2023-01-13T06:48:28.904Z,1.98
2023-01-13T06:50:55.924Z,1.30
2023-01-13T06:53:23.003Z,1.23
2023-01-13T06:55:50.094Z,1.40
2023-01-13T06:58:17.373Z,0.90
2023-01-13T07:00:44.674Z,2.67
2023-01-13T07:03:13.984Z,1.17
2023-01-13T07:05:42.810Z,1.85
2023-01-13T07:08:10.740Z,1.02
2023-01-13T07:10:38.392Z,3.45
2023-01-13T07:13:06.114Z,3.58
2023-01-13T07:15:34.314Z,4.57
2023-01-13T07:18:02.182Z,1.10
2023-01-13T07:20:30.162Z,0.95
2023-01-13T07:22:57.868Z,1.65
2023-01-13T07:25:25.333Z,4.28
2023-01-13T07:27:52.411Z,3.25
2023-01-13T07:30:19.647Z,2.88
2023-01-13T07:32:46.665Z,4.13
2023-01-13T07:35:13.740Z,4.10
2023-01-13T07:37:40.967Z,7.93
2023-01-13T07:40:08.973Z,3.30
2023-01-13T07:42:38.500Z,3.15
2023-01-13T07:45:06.356Z,3.55
2023-01-13T07:47:33.427Z,2.95
2023-01-13T07:50:00.518Z,27.40
2023-01-13T07:52:27.710Z,11.35
2023-01-13T07:54:54.836Z,3.22
2023-01-13T07:57:21.988Z,1.90
2023-01-13T07:59:49.071Z,4.18
2023-01-13T08:02:16.402Z,2.25
2023-01-13T08:04:43.625Z,2.92
2023-01-13T08:07:10.642Z,1.42
2023-01-13T08:09:37.790Z,7.97
2023-01-13T08:12:05.044Z,7.80
2023-01-13T08:14:32.384Z,7.25
2023-01-13T08:16:59.519Z,4.30
2023-01-13T08:19:26.548Z,1.27
2023-01-13T08:21:53.775Z,2.85
2023-01-13T08:24:20.821Z,8.50
2023-01-13T08:26:47.848Z,1.73
2023-01-13T08:29:27.093Z,1.63
2023-01-13T08:31:54.139Z,1.65
2023-01-13T08:34:21.331Z,1.13
2023-01-13T08:36:51.151Z,4.07
2023-01-13T08:39:18.364Z,1.15
2023-01-13T08:41:45.611Z,4.65
2023-01-13T08:44:12.668Z,1.70
2023-01-13T08:46:41.299Z,4.28
2023-01-13T08:49:08.607Z,3.72
2023-01-13T08:51:35.698Z,4.28
2023-01-13T08:54:03.472Z,2.97
2023-01-13T08:56:34.196Z,1.50
2023-01-13T09:01:30.304Z,1.98
2023-01-13T09:03:57.548Z,1.08
2023-01-13T09:06:24.706Z,1.45
2023-01-13T09:08:52.468Z,1.63
2023-01-13T09:11:25.000Z,1.23
2023-01-13T09:13:52.072Z,2.15
2023-01-13T09:16:19.234Z,2.50
2023-01-13T09:18:46.321Z,1.42
2023-01-13T09:21:14.073Z,4.82
2023-01-13T09:23:41.132Z,3.53
2023-01-13T09:26:09.542Z,1.35
2023-01-13T09:28:36.643Z,3.03
2023-01-13T09:31:03.875Z,4.10
2023-01-13T09:33:30.925Z,1.85
2023-01-13T09:35:58.374Z,1.58
2023-01-13T09:38:25.469Z,2.55
2023-01-13T09:40:53.051Z,4.32
2023-01-13T09:43:26.761Z,1.55
2023-01-13T09:46:01.659Z,3.15
2023-01-13T09:48:36.132Z,2.13
2023-01-13T09:51:12.380Z,6.20
2023-01-13T09:53:56.965Z,2.40
2023-01-13T09:56:25.273Z,4.70
2023-01-13T09:58:52.819Z,3.13
2023-01-13T10:01:44.033Z,3.90
2023-01-13T10:04:13.742Z,3.10
2023-01-13T10:06:44.111Z,2.95
2023-01-13T10:09:44.122Z,2.28
2023-01-13T10:12:18.880Z,7.93
2023-01-13T10:14:52.671Z,4.20
2023-01-13T10:17:31.617Z,3.13
2023-01-13T10:20:20.917Z,3.22
2023-01-13T10:22:50.937Z,2.88
2023-01-13T10:25:36.351Z,13.10
2023-01-13T10:28:13.104Z,4.75
2023-01-13T10:30:45.726Z,3.13
2023-01-13T10:33:26.936Z,5.28
2023-01-13T10:36:03.750Z,2.63
2023-01-13T10:38:38.395Z,3.33
2023-01-13T10:41:26.809Z,4.88
2023-01-13T10:44:07.306Z,3.65
2023-01-13T10:46:51.860Z,2.97
2023-01-13T10:49:27.542Z,2.85
2023-01-13T10:51:54.850Z,4.65
2023-01-13T10:54:24.374Z,3.15
2023-01-13T10:57:29.305Z,4.38
2023-01-13T10:59:56.478Z,1.83
2023-01-13T11:02:30.911Z,3.75
2023-01-13T11:05:01.331Z,2.72
2023-01-13T11:07:32.715Z,3.90
2023-01-13T11:10:26.757Z,8.05
2023-01-13T11:13:09.041Z,4.10
2023-01-13T11:15:41.212Z,4.25
2023-01-13T11:18:18.149Z,6.43
2023-01-13T11:20:49.316Z,6.38
2023-01-13T11:23:29.822Z,5.05
2023-01-13T11:26:04.147Z,6.93
2023-01-13T11:29:13.402Z,4.82
2023-01-13T11:31:48.505Z,3.78
2023-01-13T11:34:30.323Z,4.05
2023-01-13T11:37:00.545Z,4.90
2023-01-13T11:39:34.234Z,2.70
2023-01-13T11:42:32.353Z,4.40
2023-01-13T11:45:17.661Z,5.90
2023-01-13T11:47:48.267Z,3.72
2023-01-13T11:50:40.406Z,6.35
2023-01-13T11:56:15.241Z,4.80
2023-01-13T11:59:01.025Z,12.68
2023-01-13T12:01:40.510Z,4.13
2023-01-13T12:04:23.656Z,5.45
2023-01-13T12:06:59.640Z,7.50
2023-01-13T12:09:41.412Z,4.25
2023-01-13T12:12:14.216Z,2.13
2023-01-13T12:14:53.342Z,4.18
2023-01-13T12:17:38.475Z,3.63
2023-01-13T12:20:46.827Z,4.18
2023-01-13T12:23:34.994Z,5.45
2023-01-13T12:26:12.090Z,8.05
2023-01-13T12:29:19.152Z,5.15
2023-01-13T12:31:49.065Z,6.07
2023-01-13T12:34:23.601Z,5.82
2023-01-13T12:36:57.601Z,4.13
2023-01-13T12:39:43.020Z,4.82
2023-01-13T12:42:16.235Z,2.55
2023-01-13T12:45:05.225Z,7.40
2023-01-13T12:47:40.601Z,5.28
2023-01-13T12:50:22.818Z,4.60
2023-01-13T12:53:00.323Z,4.20
2023-01-13T12:55:31.937Z,5.55
2023-01-13T12:58:14.658Z,6.85
2023-01-13T13:00:41.710Z,8.07
2023-01-13T13:03:12.495Z,7.05
2023-01-13T13:06:01.857Z,9.20
2023-01-13T13:08:52.769Z,7.35
2023-01-13T13:11:42.233Z,17.67
2023-01-13T13:14:14.324Z,8.57
2023-01-13T13:16:52.629Z,20.17
2023-01-13T13:19:19.793Z,71.55
2023-01-13T13:22:12.211Z,23.92
2023-01-13T13:24:48.563Z,10.27
2023-01-13T13:27:28.403Z,6.35
2023-01-13T13:29:59.436Z,10.32
2023-01-13T13:32:34.174Z,9.07
2023-01-13T13:35:22.808Z,7.88
2023-01-13T13:37:58.926Z,5.15
2023-01-13T13:40:30.934Z,3.88
2023-01-13T13:42:58.466Z,8.20
2023-01-13T13:45:27.027Z,6.30
2023-01-13T13:47:55.353Z,5.38
2023-01-13T13:50:23.835Z,9.80
2023-01-13T13:52:59.979Z,8.05
2023-01-13T13:55:32.534Z,9.13
2023-01-13T13:58:04.086Z,10.00
2023-01-13T14:00:39.717Z,13.38
2023-01-13T14:03:33.502Z,14.27
2023-01-13T14:06:05.913Z,8.82
2023-01-13T14:08:37.212Z,12.73
2023-01-13T14:11:33.155Z,4.38
2023-01-13T14:14:13.377Z,5.93
2023-01-13T14:16:42.965Z,9.45
2023-01-13T14:19:31.096Z,5.10
2023-01-13T14:22:02.114Z,9.95
2023-01-13T14:24:31.229Z,7.53
2023-01-13T14:27:19.386Z,7.70
2023-01-13T14:29:47.757Z,5.70
2023-01-13T14:32:23.050Z,7.18
2023-01-13T14:34:52.193Z,7.50
2023-01-13T14:37:28.614Z,3.47
2023-01-13T14:39:56.972Z,4.78
2023-01-13T14:42:26.213Z,6.63
2023-01-13T14:44:56.236Z,7.97
2023-01-13T14:47:28.361Z,8.07
2023-01-13T14:50:10.927Z,6.53
2023-01-13T14:56:52.037Z,3.25
2023-01-13T14:59:42.013Z,3.25
2023-01-13T15:02:26.422Z,4.18
2023-01-13T15:04:54.755Z,8.27
2023-01-13T15:07:31.485Z,8.13
2023-01-13T15:10:01.827Z,8.15
2023-01-13T15:12:38.173Z,5.70
2023-01-13T15:15:19.019Z,4.93
2023-01-13T15:17:46.205Z,8.10
2023-01-13T15:20:14.797Z,10.07
2023-01-13T15:22:42.132Z,11.65
2023-01-13T15:25:09.627Z,11.68
2023-01-13T15:27:38.265Z,8.18
2023-01-13T15:30:22.814Z,10.60
2023-01-13T15:32:52.417Z,10.40
2023-01-13T15:35:20.301Z,7.07
2023-01-13T15:37:48.453Z,4.80
2023-01-13T15:40:24.126Z,5.93
2023-01-13T15:42:51.220Z,6.35
2023-01-13T15:45:18.256Z,11.30
2023-01-13T15:47:45.416Z,10.85
2023-01-13T15:50:16.903Z,13.80
2023-01-13T15:52:44.352Z,9.07
2023-01-13T15:55:11.450Z,9.07
2023-01-13T15:57:42.471Z,10.60
2023-01-13T16:00:19.052Z,7.38
2023-01-13T16:02:46.504Z,4.88
2023-01-13T16:05:13.536Z,10.07
2023-01-13T16:07:41.802Z,9.45
2023-01-13T16:10:25.238Z,9.27
2023-01-13T16:12:52.926Z,5.05
2023-01-13T16:15:20.215Z,10.77
2023-01-13T16:17:50.559Z,6.80
2023-01-13T16:20:18.565Z,8.05
2023-01-13T16:22:45.728Z,10.07
2023-01-13T16:25:18.097Z,11.88
2023-01-13T16:27:45.678Z,9.73
2023-01-13T16:30:23.781Z,9.38
2023-01-13T16:32:51.670Z,8.32
2023-01-13T16:35:19.282Z,9.85
2023-01-13T16:37:46.691Z,8.18
2023-01-13T17:58:22.546Z,7.40
2023-01-13T18:24:16.867Z,8.23
2023-01-13T18:29:10.780Z,3.92
2023-01-13T18:31:37.935Z,7.35
2023-01-13T18:34:05.012Z,12.02
2023-01-13T18:36:32.212Z,7.18
2023-01-13T18:38:59.237Z,6.07
2023-01-13T18:41:26.494Z,9.98
2023-01-13T18:43:53.548Z,5.13
2023-01-13T18:46:20.925Z,9.70
2023-01-13T18:48:48.113Z,9.25
2023-01-13T18:51:15.127Z,9.40
2023-01-13T18:53:42.177Z,13.98
2023-01-13T18:56:13.425Z,9.25
2023-01-13T18:58:41.934Z,10.52
2023-01-13T19:01:10.220Z,11.05
2023-01-13T19:03:37.372Z,4.32
2023-01-13T19:06:05.270Z,5.07
2023-01-13T19:08:32.714Z,13.65
2023-01-13T19:11:08.797Z,7.20
2023-01-13T19:13:36.438Z,4.13
2023-01-13T19:16:05.971Z,5.68
2023-01-13T19:18:33.979Z,5.03
2023-01-13T19:21:02.673Z,6.85
2023-01-13T19:23:30.071Z,6.15
2023-01-13T19:26:01.644Z,6.47
2023-01-13T19:28:28.809Z,9.57
2023-01-13T19:31:03.236Z,7.72
2023-01-13T19:33:32.721Z,8.55
2023-01-13T19:36:00.263Z,6.50
2023-01-13T19:38:27.790Z,7.90
2023-01-13T19:40:56.280Z,11.35
2023-01-13T19:43:23.969Z,7.68
2023-01-13T19:45:51.460Z,6.72
2023-01-13T19:48:18.560Z,9.23
2023-01-13T19:50:45.591Z,14.18
2023-01-13T19:53:16.159Z,9.70
2023-01-13T19:55:47.261Z,7.53
2023-01-13T19:58:14.512Z,10.75
2023-01-13T20:00:41.790Z,10.90
2023-01-13T20:03:08.967Z,8.18
2023-01-13T20:05:36.096Z,8.55
2023-01-13T20:08:03.219Z,10.98
2023-01-13T20:10:30.562Z,10.60
2023-01-13T20:12:57.953Z,9.27
2023-01-13T20:15:25.129Z,7.15
2023-01-13T20:17:52.169Z,11.07
2023-01-13T20:20:19.279Z,9.15
2023-01-13T20:22:46.520Z,12.57
2023-01-13T20:25:14.162Z,10.88
2023-01-13T20:27:41.157Z,12.55
2023-01-13T20:30:08.875Z,7.57
2023-01-13T20:32:36.451Z,10.02
2023-01-13T20:35:03.829Z,9.35
2023-01-13T20:37:30.847Z,9.25
2023-01-13T20:39:57.937Z,12.45
2023-01-13T20:42:25.012Z,6.30
2023-01-13T20:44:52.142Z,9.23
2023-01-13T20:47:29.789Z,10.32
2023-01-13T20:49:57.163Z,10.82
2023-01-13T20:52:24.380Z,10.90
2023-01-13T20:54:51.560Z,8.25
2023-01-13T20:57:18.687Z,15.07
2023-01-13T20:59:45.983Z,13.82
2023-01-13T21:02:15.509Z,7.03
2023-01-13T21:04:43.481Z,10.25
2023-01-13T21:07:11.656Z,7.32
2023-01-13T21:09:39.851Z,6.97
2023-01-13T21:12:07.648Z,11.13
2023-01-13T21:14:34.826Z,7.18
2023-01-13T21:17:03.033Z,6.90
2023-01-13T21:19:30.384Z,8.70
2023-01-13T21:21:57.469Z,9.02
2023-01-13T21:24:25.344Z,10.93
2023-01-13T21:26:53.542Z,13.95
2023-01-13T21:29:20.914Z,8.80
2023-01-13T21:31:48.081Z,8.95
2023-01-13T21:34:15.229Z,9.52
2023-01-13T21:36:42.531Z,12.60
2023-01-13T21:39:10.240Z,11.60
2023-01-13T21:41:37.324Z,9.93
2023-01-13T21:44:04.533Z,12.43
2023-01-13T21:46:31.611Z,17.00
2023-01-13T21:48:59.181Z,12.73
2023-01-13T21:51:26.790Z,8.73
2023-01-13T21:53:55.036Z,8.20
2023-01-13T21:56:22.611Z,7.68
2023-01-13T21:58:50.225Z,12.82
2023-01-13T22:01:19.000Z,13.50
2023-01-13T22:03:46.182Z,10.38
2023-01-13T22:06:13.219Z,7.78
2023-01-13T22:08:40.266Z,12.80
2023-01-13T22:11:07.319Z,7.50
2023-01-13T22:13:34.516Z,12.95
2023-01-13T22:16:04.632Z,11.73
2023-01-13T22:18:31.694Z,9.88
2023-01-13T22:21:00.842Z,13.35
2023-01-13T22:23:28.447Z,7.13
2023-01-13T22:26:05.516Z,8.35
2023-01-13T22:28:32.832Z,9.57
2023-01-13T22:31:01.196Z,10.95
2023-01-13T22:33:28.449Z,10.88
2023-01-13T22:35:55.654Z,11.25
2023-01-13T22:38:22.740Z,11.02
2023-01-13T22:40:57.871Z,6.70
2023-01-13T22:43:26.588Z,8.90
2023-01-13T22:46:02.342Z,13.13
2023-01-13T22:48:29.833Z,13.18
2023-01-13T22:50:57.071Z,12.68
2023-01-13T22:53:24.303Z,11.30
2023-01-13T22:55:55.701Z,9.90
2023-01-13T22:58:23.223Z,12.85
2023-01-13T23:00:50.696Z,11.25
2023-01-13T23:03:17.793Z,7.13
2023-01-13T23:05:45.207Z,10.18
2023-01-13T23:08:12.898Z,9.70
2023-01-13T23:10:41.305Z,17.23
2023-01-13T23:13:09.131Z,14.43
2023-01-13T23:15:36.167Z,12.07
2023-01-13T23:18:03.425Z,10.48
2023-01-13T23:20:30.895Z,27.73
2023-01-13T23:22:58.291Z,14.98
2023-01-13T23:25:26.162Z,11.88
2023-01-13T23:27:53.245Z,7.25
2023-01-13T23:30:20.448Z,12.45
2023-01-13T23:32:47.460Z,10.40
2023-01-13T23:35:14.691Z,13.07
2023-01-13T23:37:41.801Z,10.27
2023-01-13T23:40:10.092Z,9.98
2023-01-13T23:42:37.279Z,11.13
2023-01-13T23:45:04.758Z,7.78
2023-01-13T23:47:31.938Z,10.75
2023-01-13T23:49:59.062Z,16.55
2023-01-13T23:52:26.235Z,10.38
2023-01-13T23:54:53.298Z,9.98
2023-01-13T23:57:20.323Z,9.10
2023-01-13T23:59:47.428Z,10.38
